Time;durP1;ratioP1;P1;durP2;ratioP2;P2;SDS_P1;SDS_P2;PMS_P1;PMS_P2;Temp;Humidity;BMP_temperature;BMP_pressure;BME280_temperature;BME280_humidity;BME280_pressure;Samples;Min_cycle;Max_cycle;Signal;HPM_P1;HPM_P2
2022/12/22 03:26:18;;;;;;;94.63;32.47;;;;;;;5.48;100.00;99822.13;5009158;28;20033;-70
2022/12/22 03:28:44;;;;;;;87.20;33.53;;;;;;;5.50;100.00;99823.63;5016713;28;20021;-72
2022/12/22 03:31:10;;;;;;;100.13;36.17;;;;;;;5.50;100.00;99822.78;5006633;28;20091;-72
2022/12/22 03:33:35;;;;;;;96.78;33.95;;;;;;;5.46;100.00;99814.31;5005225;28;20029;-72
2022/12/22 03:36:01;;;;;;;90.27;32.57;;;;;;;5.47;100.00;99802.72;5006455;28;20434;-71
2022/12/22 03:38:27;;;;;;;93.95;30.98;;;;;;;5.50;100.00;99806.88;5017249;28;20398;-72
2022/12/22 03:40:52;;;;;;;104.18;32.63;;;;;;;5.43;100.00;99798.75;5006668;28;20030;-72
2022/12/22 03:51:32;;;;;;;115.53;37.10;;;;;;;5.37;100.00;99780.81;5021280;28;20040;-72
2022/12/22 03:53:57;;;;;;;102.78;34.33;;;;;;;5.48;100.00;99780.59;5026544;28;20844;-72
2022/12/22 03:56:23;;;;;;;97.53;33.35;;;;;;;5.45;100.00;99767.63;5026063;28;20120;-72
2022/12/22 03:58:48;;;;;;;102.47;33.80;;;;;;;5.42;100.00;99767.94;5013107;28;20041;-72
2022/12/22 04:01:13;;;;;;;112.70;34.87;;;;;;;5.40;100.00;99769.91;5006087;28;20054;-72
2022/12/22 04:03:39;;;;;;;95.47;30.27;;;;;;;5.38;100.00;99763.94;5019011;28;20029;-71
2022/12/22 04:06:04;;;;;;;111.67;34.63;;;;;;;5.37;100.00;99759.63;5006175;28;20509;-72
2022/12/22 04:08:29;;;;;;;89.60;31.40;;;;;;;5.44;100.00;99755.41;5006148;28;20383;-72
2022/12/22 04:13:39;;;;;;;80.45;29.25;;;;;;;5.46;100.00;99748.13;5010483;28;20033;-72
2022/12/22 04:16:04;;;;;;;72.20;28.80;;;;;;;5.41;100.00;99739.81;5011025;28;20042;-74
2022/12/22 04:18:30;;;;;;;75.22;28.45;;;;;;;5.47;100.00;99738.38;5009473;28;20519;-71
2022/12/22 04:20:55;;;;;;;79.50;27.77;;;;;;;5.39;100.00;99736.50;5018276;28;20033;-71
2022/12/22 04:23:20;;;;;;;70.03;25.97;;;;;;;5.41;100.00;99729.25;5017440;28;20533;-74
2022/12/22 04:25:46;;;;;;;71.53;26.23;;;;;;;5.42;100.00;99736.19;5010204;28;20537;-71
2022/12/22 04:28:12;;;;;;;70.40;24.45;;;;;;;5.42;100.00;99730.88;5017345;28;20769;-71
2022/12/22 04:30:37;;;;;;;79.33;26.53;;;;;;;5.36;100.00;99720.94;5010184;28;20034;-75
2022/12/22 04:33:03;;;;;;;70.73;25.37;;;;;;;5.40;100.00;99713.50;5022724;28;20364;-74
2022/12/22 04:35:28;;;;;;;66.18;24.30;;;;;;;5.37;100.00;99709.34;5029763;28;20653;-73
2022/12/22 04:37:53;;;;;;;70.30;24.93;;;;;;;5.36;100.00;99713.00;5028574;28;20036;-72
2022/12/22 04:40:19;;;;;;;69.47;22.73;;;;;;;5.32;100.00;99698.41;5022656;28;20037;-72
2022/12/22 04:42:44;;;;;;;66.80;24.00;;;;;;;5.36;100.00;99709.50;5009843;28;20069;-71
2022/12/22 04:45:10;;;;;;;75.13;22.63;;;;;;;5.39;100.00;99701.25;5009680;28;20042;-72
2022/12/22 04:47:35;;;;;;;71.75;25.23;;;;;;;5.40;100.00;99701.09;5009794;28;20034;-73
2022/12/22 04:50:00;;;;;;;69.43;24.33;;;;;;;5.38;100.00;99702.22;5022073;28;20037;-72
2022/12/22 04:52:26;;;;;;;76.47;24.10;;;;;;;5.40;100.00;99703.75;5021908;28;20037;-72
2022/12/22 04:54:51;;;;;;;71.50;25.87;;;;;;;5.46;100.00;99689.06;5009346;28;20075;-72
2022/12/22 04:57:16;;;;;;;62.03;23.17;;;;;;;5.45;100.00;99693.50;5009662;28;20080;-72
2022/12/22 04:59:42;;;;;;;63.07;23.47;;;;;;;5.47;100.00;99691.53;5008155;28;20768;-73
2022/12/22 05:02:07;;;;;;;66.17;26.40;;;;;;;5.50;100.00;99685.09;4992201;28;20419;-73
2022/12/22 05:04:32;;;;;;;57.33;23.23;;;;;;;5.40;100.00;99674.63;5009734;28;20077;-72
2022/12/22 05:06:58;;;;;;;67.77;25.60;;;;;;;5.40;100.00;99671.97;5009491;28;20048;-73
2022/12/22 05:09:23;;;;;;;72.80;23.27;;;;;;;5.38;100.00;99675.75;5011826;28;20380;-72
2022/12/22 05:11:48;;;;;;;66.53;23.40;;;;;;;5.42;100.00;99670.00;4992661;28;20042;-72
2022/12/22 05:14:14;;;;;;;69.43;24.07;;;;;;;5.41;100.00;99670.19;5011055;28;20030;-72
2022/12/22 05:16:39;;;;;;;69.88;21.70;;;;;;;5.35;100.00;99668.97;5015284;28;20132;-72
2022/12/22 05:19:04;;;;;;;51.73;20.83;;;;;;;5.48;100.00;99669.38;5017522;28;20033;-73
2022/12/22 05:21:30;;;;;;;70.10;24.37;;;;;;;5.45;100.00;99664.38;4998809;28;20108;-73
2022/12/22 05:23:55;;;;;;;60.17;20.97;;;;;;;5.45;100.00;99658.28;5016664;28;20034;-72
2022/12/22 05:26:21;;;;;;;63.63;23.27;;;;;;;5.49;100.00;99656.97;5018489;28;20330;-73
2022/12/22 05:28:46;;;;;;;61.93;22.80;;;;;;;5.38;100.00;99650.13;4992689;28;20084;-73
2022/12/22 05:31:19;;;;;;;74.30;24.75;;;;;;;5.42;100.00;99651.47;4999082;28;20810;-73
2022/12/22 05:33:44;;;;;;;59.10;24.27;;;;;;;5.47;100.00;99653.66;5026396;28;20056;-74
2022/12/22 05:36:10;;;;;;;63.53;24.83;;;;;;;5.44;100.00;99649.50;5010813;28;20518;-72
2022/12/22 05:38:35;;;;;;;63.70;24.03;;;;;;;5.37;100.00;99645.81;5028572;28;20033;-72
2022/12/22 05:41:01;;;;;;;75.97;25.33;;;;;;;5.40;100.00;99644.69;5010418;28;20295;-74
2022/12/22 05:43:26;;;;;;;60.90;23.25;;;;;;;5.39;100.00;99641.22;5020617;28;20037;-72
2022/12/22 05:45:52;;;;;;;59.97;23.60;;;;;;;5.42;100.00;99638.25;4999716;28;20061;-72
2022/12/22 05:48:17;;;;;;;65.35;23.63;;;;;;;5.45;100.00;99642.38;5018062;28;20452;-74
2022/12/22 05:50:43;;;;;;;71.47;26.38;;;;;;;5.48;100.00;99634.97;5017147;28;20029;-76
2022/12/22 05:53:08;;;;;;;54.60;23.42;;;;;;;5.44;100.00;99633.63;5015213;28;20076;-72
2022/12/22 05:55:34;;;;;;;60.17;23.93;;;;;;;5.50;100.00;99637.44;5018835;28;20653;-73
2022/12/22 05:58:00;;;;;;;66.10;25.03;;;;;;;5.50;100.00;99640.94;5016699;28;20061;-72
2022/12/22 06:00:28;;;;;;;60.35;26.30;;;;;;;5.49;100.00;99627.84;5023685;28;20084;-73
2022/12/22 06:02:53;;;;;;;65.95;25.33;;;;;;;5.48;100.00;99632.31;5016941;28;20084;-74
2022/12/22 06:05:18;;;;;;;57.87;23.23;;;;;;;5.51;100.00;99623.25;4996876;28;20045;-72
2022/12/22 06:07:44;;;;;;;76.97;29.60;;;;;;;5.50;100.00;99622.41;5009169;28;20049;-72
2022/12/22 06:10:11;;;;;;;68.77;25.93;;;;;;;5.55;100.00;99627.25;5013878;28;20314;-75
2022/12/22 06:12:36;;;;;;;62.88;27.17;;;;;;;5.49;100.00;99618.09;5010587;28;20563;-74
2022/12/22 06:15:02;;;;;;;68.80;24.10;;;;;;;5.50;100.00;99624.22;5007987;28;20104;-75
2022/12/22 06:17:27;;;;;;;70.53;25.02;;;;;;;5.54;100.00;99617.63;5011795;28;20052;-71
2022/12/22 06:19:53;;;;;;;73.63;25.90;;;;;;;5.50;100.00;99622.41;4994555;28;20069;-74
2022/12/22 06:22:18;;;;;;;80.93;26.17;;;;;;;5.46;100.00;99626.34;5011632;28;20042;-74
2022/12/22 06:24:43;;;;;;;69.90;23.97;;;;;;;5.56;100.00;99628.88;5011823;28;20030;-73
2022/12/22 06:27:09;;;;;;;78.03;27.33;;;;;;;5.52;100.00;99614.28;5013319;28;20036;-74
2022/12/22 06:29:36;;;;;;;72.07;24.63;;;;;;;5.53;100.00;99620.44;5014477;28;20048;-75
2022/12/22 06:32:01;;;;;;;74.65;25.40;;;;;;;5.48;100.00;99612.97;5015154;28;20462;-75
2022/12/22 06:34:26;;;;;;;67.57;23.37;;;;;;;5.54;100.00;99608.84;5013333;28;20116;-74
2022/12/22 06:36:52;;;;;;;72.93;25.80;;;;;;;5.56;100.00;99613.00;5011756;28;20121;-72
2022/12/22 06:39:17;;;;;;;63.17;23.93;;;;;;;5.48;100.00;99619.09;5008218;28;20750;-74
2022/12/22 06:44:26;;;;;;;66.88;23.88;;;;;;;5.62;100.00;99606.22;5014051;28;20041;-74
2022/12/22 06:46:52;;;;;;;100.38;26.83;;;;;;;5.50;100.00;99598.59;5010360;28;20490;-73
2022/12/22 06:49:19;;;;;;;70.57;23.23;;;;;;;5.50;100.00;99600.38;5006911;28;20073;-75
2022/12/22 06:51:44;;;;;;;79.70;24.15;;;;;;;5.53;100.00;99610.69;5016195;28;20514;-73
2022/12/22 06:54:10;;;;;;;66.43;23.77;;;;;;;5.52;100.00;99608.19;5014458;28;20056;-75
2022/12/22 06:56:35;;;;;;;69.53;22.97;;;;;;;5.56;100.00;99602.41;4992996;28;20403;-72
2022/12/22 06:59:01;;;;;;;69.50;23.50;;;;;;;5.56;100.00;99612.19;5017158;28;20037;-71
2022/12/22 07:01:26;;;;;;;86.27;26.23;;;;;;;5.50;100.00;99605.69;5025606;28;20037;-74
2022/12/22 07:03:52;;;;;;;83.05;25.83;;;;;;;5.57;100.00;99611.19;5010591;28;20320;-75
2022/12/22 07:06:17;;;;;;;87.63;26.67;;;;;;;5.54;100.00;99611.50;5007237;28;20052;-74
2022/12/22 07:08:46;;;;;;;68.57;22.77;;;;;;;5.64;100.00;99606.91;5002644;28;20041;-73
2022/12/22 07:11:13;;;;;;;90.13;25.30;;;;;;;5.61;100.00;99616.00;5016289;28;20106;-74
2022/12/22 07:13:38;;;;;;;76.38;24.08;;;;;;;5.61;100.00;99621.28;5003795;28;20045;-72
2022/12/22 07:16:06;;;;;;;82.85;21.92;;;;;;;5.60;100.00;99616.19;5017245;28;20038;-74
2022/12/22 07:18:33;;;;;;;68.47;24.35;;;;;;;5.64;100.00;99620.16;4999326;28;20038;-71
2022/12/22 07:21:00;;;;;;;71.90;23.83;;;;;;;5.66;100.00;99611.06;5005477;28;20042;-72
2022/12/22 07:23:26;;;;;;;90.57;26.45;;;;;;;5.66;100.00;99615.53;5017577;28;20034;-74
2022/12/22 07:25:51;;;;;;;67.15;24.65;;;;;;;5.69;100.00;99618.69;5022237;28;20576;-74
2022/12/22 07:28:17;;;;;;;80.75;24.42;;;;;;;5.63;100.00;99614.03;5008825;28;20727;-75
2022/12/22 07:30:42;;;;;;;84.47;25.70;;;;;;;5.66;100.00;99621.66;5008364;28;20037;-72
2022/12/22 07:33:08;;;;;;;85.28;23.55;;;;;;;5.70;100.00;99616.88;5013865;28;20109;-73
2022/12/22 07:35:33;;;;;;;75.67;24.83;;;;;;;5.70;100.00;99622.19;5004908;28;20059;-74
2022/12/22 07:37:59;;;;;;;66.80;24.57;;;;;;;5.78;100.00;99619.53;5010539;28;20665;-75
2022/12/22 07:40:24;;;;;;;83.82;23.55;;;;;;;5.67;100.00;99602.13;5013894;28;20057;-75
2022/12/22 07:42:58;;;;;;;75.17;23.97;;;;;;;5.73;100.00;99611.25;5004644;28;20089;-73
2022/12/22 07:45:24;;;;;;;68.03;23.30;;;;;;;5.72;100.00;99609.59;5010331;28;20129;-75
2022/12/22 07:47:50;;;;;;;;;;;;;;;5.75;100.00;99614.56;5001292;28;20048;-74
2022/12/22 07:50:24;;;;;;;64.90;22.42;;;;;;;5.72;100.00;99599.00;5006900;28;19913;-74
2022/12/22 07:52:58;;;;;;;70.72;23.92;;;;;;;5.76;100.00;99610.09;4977262;28;20061;-75
2022/12/22 07:55:25;;;;;;;63.55;24.08;;;;;;;5.77;100.00;99601.19;5004342;28;20059;-74
2022/12/22 07:57:51;;;;;;;74.60;24.15;;;;;;;5.81;100.00;99611.31;5004354;28;20025;-75
2022/12/22 08:00:18;;;;;;;74.50;26.27;;;;;;;5.75;100.00;99606.63;5014266;28;20345;-72
2022/12/22 08:02:54;;;;;;;70.60;23.90;;;;;;;5.78;100.00;99614.25;5009882;28;20041;-75
2022/12/22 08:05:22;;;;;;;70.75;23.40;;;;;;;5.83;100.00;99605.81;5007150;28;20041;-73
2022/12/22 08:07:49;;;;;;;77.57;26.90;;;;;;;5.88;100.00;99614.97;5015365;28;20045;-73
2022/12/22 08:10:14;;;;;;;71.65;23.67;;;;;;;5.88;100.00;99609.69;5024180;28;20108;-73
2022/12/22 08:12:40;;;;;;;76.70;24.33;;;;;;;5.86;100.00;99618.78;5024275;28;20741;-73
2022/12/22 08:15:07;;;;;;;75.88;26.92;;;;;;;5.87;100.00;99613.28;5009543;28;20034;-73
2022/12/22 08:17:34;;;;;;;78.97;27.13;;;;;;;5.89;100.00;99616.63;5005622;28;20554;-73
2022/12/22 08:19:59;;;;;;;63.47;22.98;;;;;;;5.85;100.00;99614.44;5011770;28;20138;-73
2022/12/22 08:22:25;;;;;;;83.93;26.23;;;;;;;5.86;100.00;99614.28;5007436;28;20033;-74
2022/12/22 08:24:54;;;;;;;104.65;27.70;;;;;;;5.82;100.00;99605.00;5000753;28;20737;-73
2022/12/22 08:27:25;;;;;;;92.10;26.13;;;;;;;5.90;100.00;99613.00;5024145;28;20118;-73
2022/12/22 08:29:56;;;;;;;69.47;23.70;;;;;;;5.95;100.00;99615.19;4996745;28;21341;-73
2022/12/22 08:32:21;;;;;;;85.18;27.60;;;;;;;5.95;100.00;99619.63;5017156;28;20525;-73
2022/12/22 08:34:49;;;;;;;67.97;23.95;;;;;;;5.97;100.00;99615.03;5015279;28;20029;-72
2022/12/22 08:37:17;;;;;;;72.78;25.40;;;;;;;5.97;100.00;99620.31;5006032;28;20037;-72
2022/12/22 08:39:47;;;;;;;88.50;25.27;;;;;;;6.02;100.00;99615.41;5019076;28;20044;-74
2022/12/22 08:42:16;;;;;;;80.20;24.80;;;;;;;6.06;100.00;99599.00;5008019;28;20033;-75
2022/12/22 08:44:43;;;;;;;89.30;27.58;;;;;;;6.06;100.00;99608.75;5012599;28;20365;-72
2022/12/22 08:47:08;;;;;;;92.00;26.90;;;;;;;6.12;100.00;99606.28;5005806;28;20030;-72
2022/12/22 08:49:34;;;;;;;63.70;21.90;;;;;;;6.08;100.00;99604.94;5005560;28;20061;-73
2022/12/22 08:51:59;;;;;;;69.13;23.67;;;;;;;6.10;100.00;99604.81;5005543;28;20061;-73
2022/12/22 08:54:24;;;;;;;75.07;22.90;;;;;;;6.10;100.00;99607.44;5005859;28;20115;-73
2022/12/22 08:56:50;;;;;;;64.50;23.17;;;;;;;6.14;100.00;99614.09;5005443;28;20048;-73
2022/12/22 08:59:16;;;;;;;60.47;23.47;;;;;;;6.23;100.00;99607.00;5005789;28;20088;-72
2022/12/22 09:01:43;;;;;;;69.80;22.38;;;;;;;6.17;100.00;99599.69;5005195;28;20121;-72
2022/12/22 09:04:11;;;;;;;74.07;24.30;;;;;;;6.14;100.00;99598.19;5001093;28;20048;-73
2022/12/22 09:06:36;;;;;;;65.38;23.85;;;;;;;6.20;100.00;99608.13;5024430;28;20034;-72
2022/12/22 09:09:05;;;;;;;65.93;21.80;;;;;;;6.12;100.00;99602.81;5027251;28;20037;-75
2022/12/22 09:11:30;;;;;;;72.75;24.75;;;;;;;6.10;100.00;99605.63;5028823;28;20041;-73
2022/12/22 09:13:58;;;;;;;66.80;23.70;;;;;;;6.14;100.00;99608.78;5009693;28;20036;-74
2022/12/22 09:16:26;;;;;;;72.20;25.88;;;;;;;6.21;100.00;99615.09;5008973;28;20038;-73
2022/12/22 09:18:51;;;;;;;71.15;25.38;;;;;;;6.13;100.00;99613.28;5008875;28;20026;-73
2022/12/22 09:21:16;;;;;;;76.27;22.50;;;;;;;6.16;100.00;99617.41;5004665;28;20116;-73
2022/12/22 09:23:42;;;;;;;64.77;23.97;;;;;;;6.23;100.00;99618.44;5000981;28;20088;-73
2022/12/22 09:26:14;;;;;;;72.82;24.88;;;;;;;6.26;100.00;99610.16;5012563;28;20038;-74
2022/12/22 09:28:40;;;;;;;67.85;25.85;;;;;;;6.25;100.00;99613.81;5018254;28;20072;-73
2022/12/22 09:31:05;;;;;;;82.15;25.67;;;;;;;6.25;100.00;99607.66;5008024;28;20030;-73
2022/12/22 09:33:32;;;;;;;108.20;28.15;;;;;;;6.23;100.00;99602.53;5010796;28;20030;-72
2022/12/22 09:35:58;;;;;;;84.82;27.35;;;;;;;6.28;100.00;99610.81;5012063;28;20092;-72
2022/12/22 09:38:35;;;;;;;78.88;25.27;;;;;;;6.27;100.00;99605.66;5008497;28;20029;-73
2022/12/22 09:41:09;;;;;;;95.22;28.90;;;;;;;6.25;100.00;99616.44;5024554;28;20048;-73
2022/12/22 09:43:35;;;;;;;66.50;24.98;;;;;;;6.25;100.00;99616.44;5015227;28;20112;-73
2022/12/22 09:46:01;;;;;;;;;;;;;;;6.25;100.00;99620.91;5007203;28;20026;-73
2022/12/22 09:48:34;;;;;;;69.30;24.77;;;;;;;6.20;100.00;99618.72;5019342;28;19971;-73
2022/12/22 09:51:01;;;;;;;109.78;31.58;;;;;;;6.17;100.00;99624.38;5015254;28;20037;-73
2022/12/22 09:53:26;;;;;;;75.47;26.08;;;;;;;6.17;100.00;99619.06;5018368;28;20451;-73
2022/12/22 09:55:52;;;;;;;98.63;28.70;;;;;;;6.20;100.00;99617.91;4999788;28;20049;-73
2022/12/22 09:58:26;;;;;;;119.63;30.90;;;;;;;6.18;100.00;99620.75;5010746;28;20034;-73
2022/12/22 10:01:34;;;;;;;81.25;28.77;;;;;;;6.18;100.00;99620.75;5016057;28;20052;-73
2022/12/22 10:04:40;;;;;;;146.43;35.47;;;;;;;6.18;100.00;99614.59;5015738;28;20156;-73
2022/12/22 10:07:30;;;;;;;111.28;30.25;;;;;;;6.21;100.00;99609.81;4947149;28;20688;-73
2022/12/22 10:09:55;;;;;;;131.43;36.53;;;;;;;6.25;100.00;99611.16;4946800;28;20148;-73
2022/12/22 10:12:23;;;;;;;111.03;32.33;;;;;;;6.28;100.00;99613.47;4931775;29;20523;-75
2022/12/22 10:14:51;;;;;;;151.90;34.63;;;;;;;6.33;100.00;99618.28;4946149;28;20043;-75
2022/12/22 10:17:22;;;;;;;92.07;30.02;;;;;;;6.45;100.00;99624.09;4946599;28;20039;-75
2022/12/22 10:19:50;;;;;;;99.65;31.63;;;;;;;6.55;100.00;99625.63;4946352;28;20126;-73
2022/12/22 10:22:29;;;;;;;108.18;35.03;;;;;;;6.55;100.00;99622.97;4946216;28;20039;-73
2022/12/22 10:24:56;;;;;;;87.47;30.88;;;;;;;6.68;100.00;99614.50;4945959;28;20138;-74
2022/12/22 10:27:25;;;;;;;113.03;34.38;;;;;;;6.75;100.00;99618.16;4946503;28;20090;-75
2022/12/22 10:29:51;;;;;;;98.28;30.70;;;;;;;6.68;100.00;99614.50;4946144;28;20106;-75
2022/12/22 10:32:19;;;;;;;93.53;30.63;;;;;;;6.75;100.00;99614.69;4930223;29;20047;-73
2022/12/22 10:35:04;;;;;;;79.65;30.80;;;;;;;6.83;100.00;99617.31;4930147;28;20039;-74
2022/12/22 10:37:34;;;;;;;85.70;30.70;;;;;;;6.79;100.00;99615.16;4946133;28;20074;-74
2022/12/22 10:40:13;;;;;;;85.00;31.67;;;;;;;6.80;100.00;99612.34;4946280;28;20110;-75
2022/12/22 10:42:44;;;;;;;86.03;30.67;;;;;;;6.86;100.00;99613.50;4941377;28;20049;-74
2022/12/22 10:45:17;;;;;;;85.22;28.98;;;;;;;6.87;100.00;99620.50;5012903;28;20038;-75
2022/12/22 10:47:51;;;;;;;96.18;31.15;;;;;;;6.73;100.00;99609.53;5010733;28;20037;-72
2022/12/22 10:50:17;;;;;;;79.22;32.25;;;;;;;6.83;100.00;99598.75;5007204;28;20172;-75
2022/12/22 10:52:53;;;;;;;79.93;30.15;;;;;;;6.85;100.00;99595.94;5026339;28;20492;-73
2022/12/22 10:55:28;;;;;;;80.45;28.00;;;;;;;6.93;100.00;99598.59;5026337;28;20048;-73
2022/12/22 10:58:16;;;;;;;76.20;29.85;;;;;;;7.32;100.00;99592.56;5008620;28;20076;-72
2022/12/22 11:00:43;;;;;;;63.90;27.38;;;;;;;8.13;100.00;99598.56;5020452;28;20037;-73
2022/12/22 11:03:13;;;;;;;53.30;24.92;;;;;;;8.70;100.00;99611.50;5012231;28;20041;-72
2022/12/22 11:05:39;;;;;;;41.30;20.60;;;;;;;9.27;100.00;99597.72;5025001;28;20029;-72
2022/12/22 11:08:17;;;;;;;39.05;18.55;;;;;;;9.81;100.00;99569.97;5004813;28;20064;-73
2022/12/22 11:11:13;;;;;;;34.53;17.60;;;;;;;10.01;100.00;99545.38;5009585;28;20037;-73
2022/12/22 11:14:03;;;;;;;30.30;16.27;;;;;;;10.17;100.00;99523.78;5008820;28;20216;-72
2022/12/22 11:16:45;;;;;;;27.15;15.23;;;;;;;10.30;100.00;99504.44;5006167;28;20069;-73
2022/12/22 11:19:22;;;;;;;25.75;13.30;;;;;;;9.78;100.00;99479.69;5009678;28;20037;-73
2022/12/22 11:22:05;;;;;;;21.30;12.32;;;;;;;10.27;100.00;99470.13;5014529;28;20049;-73
2022/12/22 11:24:43;;;;;;;22.80;12.18;;;;;;;10.24;100.00;99457.19;5004744;28;20467;-73
2022/12/22 11:27:52;;;;;;;21.63;11.90;;;;;;;9.69;100.00;99430.19;5016555;28;20491;-73
2022/12/22 11:30:22;;;;;;;26.30;14.45;;;;;;;9.44;100.00;99424.38;5016285;28;20057;-72
2022/12/22 11:32:54;;;;;;;24.40;12.48;;;;;;;9.89;100.00;99438.38;5010152;28;20045;-73
2022/12/22 11:35:41;;;;;;;23.40;13.75;;;;;;;9.95;100.00;99424.31;5007110;28;20040;-72
2022/12/22 11:38:35;;;;;;;23.27;13.38;;;;;;;9.91;100.00;99413.19;5009467;28;20136;-72
2022/12/22 11:41:18;;;;;;;25.63;13.38;;;;;;;9.45;100.00;99402.03;4992100;28;20084;-73
2022/12/22 11:44:22;;;;;;;27.88;14.40;;;;;;;8.99;100.00;99411.13;5014475;28;20141;-73
2022/12/22 11:47:17;;;;;;;26.13;14.70;;;;;;;8.70;100.00;99411.13;5004453;28;20512;-73
2022/12/22 11:49:59;;;;;;;24.97;13.30;;;;;;;8.59;100.00;99431.88;4942744;28;20228;-72
2022/12/22 11:52:40;;;;;;;30.10;15.32;;;;;;;8.33;100.00;99452.69;5012427;28;20033;-73
2022/12/22 11:55:31;;;;;;;35.42;15.25;;;;;;;8.35;100.00;99486.06;5009859;28;20033;-73
2022/12/22 11:58:37;;;;;;;31.27;15.18;;;;;;;8.21;100.00;99492.16;5003486;28;20039;-73
2022/12/22 12:01:28;;;;;;;27.90;14.77;;;;;;;8.03;100.00;99509.25;4942088;28;20053;-72
2022/12/22 12:04:14;;;;;;;29.25;14.48;;;;;;;7.94;100.00;99534.22;5009885;28;20065;-72
2022/12/22 12:06:58;;;;;;;27.45;14.68;;;;;;;7.82;100.00;99544.41;5013834;28;20037;-72
2022/12/22 12:09:42;;;;;;;30.65;13.82;;;;;;;7.62;100.00;99548.47;5015542;28;20029;-73
2022/12/22 12:12:16;;;;;;;31.67;16.33;;;;;;;7.49;100.00;99562.31;5012252;28;20030;-72
2022/12/22 12:15:07;;;;;;;28.02;13.93;;;;;;;7.37;100.00;99575.13;5014076;28;21021;-72
2022/12/22 12:17:53;;;;;;;25.58;12.32;;;;;;;7.38;100.00;99581.28;5013174;28;20037;-71
2022/12/22 12:20:26;;;;;;;26.95;14.18;;;;;;;7.31;100.00;99590.91;5016186;28;20034;-72
2022/12/22 12:23:17;;;;;;;26.92;14.18;;;;;;;7.56;100.00;99611.09;5014220;28;20035;-72
2022/12/22 12:25:51;;;;;;;23.77;13.27;;;;;;;8.27;100.00;99619.09;5013482;28;20045;-72
2022/12/22 12:28:45;;;;;;;25.15;12.85;;;;;;;8.78;100.00;99584.00;5015526;28;20038;-72
2022/12/22 12:31:13;;;;;;;26.02;11.73;;;;;;;9.01;100.00;99541.38;5015521;28;20487;-72
2022/12/22 12:33:52;;;;;;;19.90;11.50;;;;;;;9.38;100.00;99505.84;5019228;28;20530;-72
2022/12/22 12:36:28;;;;;;;22.65;11.40;;;;;;;9.42;100.00;99463.69;5013194;28;20042;-73
2022/12/22 12:39:18;;;;;;;;;;;;;;;9.07;100.00;99423.50;5012355;28;20034;-72
2022/12/22 12:41:53;;;;;;;21.88;11.32;;;;;;;9.23;100.00;99415.31;5009161;28;19963;-73
2022/12/22 12:44:24;;;;;;;20.15;10.38;;;;;;;9.34;100.00;99375.91;5009156;28;20041;-73
2022/12/22 12:46:49;;;;;;;24.77;11.43;;;;;;;9.23;100.00;99337.28;5014095;28;20456;-74
2022/12/22 12:49:33;;;;;;;24.10;12.03;;;;;;;9.15;100.00;99306.25;5010919;28;20077;-73
2022/12/22 12:52:06;;;;;;;21.30;11.88;;;;;;;9.20;100.00;99276.38;5016662;28;20384;-74
2022/12/22 12:54:31;;;;;;;21.85;10.65;;;;;;;9.27;100.00;99253.31;5012708;28;20064;-73
2022/12/22 12:57:05;;;;;;;27.40;12.30;;;;;;;9.05;100.00;99239.19;5012629;28;20065;-73
2022/12/22 12:59:40;;;;;;;23.65;11.48;;;;;;;8.66;100.00;99221.75;5015656;28;20147;-73
2022/12/22 13:02:27;;;;;;;24.20;11.13;;;;;;;8.22;100.00;99233.28;5017635;28;20060;-73
2022/12/22 13:05:03;;;;;;;21.88;11.82;;;;;;;8.01;100.00;99282.66;5017207;28;20065;-73
2022/12/22 13:08:06;;;;;;;21.92;12.25;;;;;;;7.93;100.00;99335.06;5011858;28;20053;-72
2022/12/22 13:10:54;;;;;;;23.70;11.65;;;;;;;7.97;100.00;99369.06;5016478;28;20891;-72
2022/12/22 13:13:20;;;;;;;24.88;11.88;;;;;;;7.80;100.00;99372.88;5014072;28;20038;-72
2022/12/22 13:15:47;;;;;;;30.70;12.73;;;;;;;7.60;100.00;99386.63;5016165;28;20022;-73
2022/12/22 13:18:24;;;;;;;25.10;10.63;;;;;;;7.53;100.00;99424.69;5016822;28;20033;-73
2022/12/22 13:20:57;;;;;;;22.27;11.57;;;;;;;7.37;100.00;99437.06;5016995;28;20494;-73
2022/12/22 13:23:26;;;;;;;22.77;9.20;;;;;;;7.24;100.00;99451.91;5017336;28;20042;-73
2022/12/22 13:25:58;;;;;;;23.75;11.05;;;;;;;7.24;100.00;99481.09;5016608;28;20044;-73
2022/12/22 13:28:25;;;;;;;20.92;9.68;;;;;;;7.34;100.00;99501.13;5015621;28;20117;-72
2022/12/22 13:30:59;;;;;;;21.83;8.85;;;;;;;7.56;100.00;99510.16;5018909;28;20042;-72
2022/12/22 13:33:29;;;;;;;22.00;8.63;;;;;;;7.36;100.00;99467.25;5010730;28;20037;-72
2022/12/22 13:35:57;;;;;;;22.63;8.68;;;;;;;7.20;100.00;99456.72;5020685;28;20037;-73
2022/12/22 13:38:31;;;;;;;17.10;7.80;;;;;;;7.03;100.00;99465.75;5005357;28;20040;-72
2022/12/22 13:40:59;;;;;;;22.35;9.23;;;;;;;6.88;100.00;99473.56;5006379;28;20028;-72
2022/12/22 13:43:27;;;;;;;20.52;9.38;;;;;;;6.71;100.00;99494.81;5023860;28;20033;-72
2022/12/22 13:45:55;;;;;;;21.00;8.65;;;;;;;6.53;100.00;99528.63;5016709;28;20095;-72
2022/12/22 13:48:25;;;;;;;18.63;7.03;;;;;;;6.53;100.00;99569.25;5016455;28;20442;-72
2022/12/22 13:50:58;;;;;;;14.07;7.55;;;;;;;6.50;100.00;99571.41;4989693;28;20099;-72
2022/12/22 13:53:36;;;;;;;18.73;6.00;;;;;;;6.38;100.00;99573.53;5018606;28;20041;-73
2022/12/22 13:56:05;;;;;;;16.58;8.30;;;;;;;6.31;100.00;99578.66;5019803;28;20038;-73
2022/12/22 13:58:35;;;;;;;18.08;5.63;;;;;;;6.25;100.00;99582.00;5015888;28;20035;-72
2022/12/22 14:01:12;;;;;;;18.77;6.38;;;;;;;6.27;100.00;99603.84;5014604;28;20037;-72
2022/12/22 14:03:44;;;;;;;25.00;6.72;;;;;;;6.26;100.00;99602.19;5012186;28;20499;-72
2022/12/22 14:06:33;;;;;;;11.63;5.65;;;;;;;6.24;100.00;99614.78;5007673;28;20068;-72
2022/12/22 14:09:28;;;;;;;20.40;7.53;;;;;;;6.22;100.00;99621.22;5018960;28;20041;-72
2022/12/22 14:11:59;;;;;;;20.63;7.43;;;;;;;6.20;100.00;99631.16;4943766;29;20197;-73
2022/12/22 14:14:28;;;;;;;18.25;7.90;;;;;;;6.10;100.00;99629.47;4942768;29;20291;-72
2022/12/22 14:16:57;;;;;;;21.50;8.27;;;;;;;6.04;100.00;99647.84;4931057;29;20594;-72
2022/12/22 14:19:24;;;;;;;14.65;6.63;;;;;;;6.00;100.00;99659.75;4938110;29;20054;-72
2022/12/22 14:22:01;;;;;;;17.52;8.27;;;;;;;5.95;100.00;99659.38;4923350;29;20055;-72
2022/12/22 14:24:30;;;;;;;23.10;5.80;;;;;;;5.96;100.00;99658.41;4930534;29;20573;-72
2022/12/22 14:26:56;;;;;;;15.13;6.22;;;;;;;5.85;100.00;99652.38;4930446;29;20027;-73
2022/12/22 14:29:25;;;;;;;18.70;5.93;;;;;;;5.83;100.00;99653.50;4941890;29;20341;-72
2022/12/22 14:32:01;;;;;;;14.80;5.25;;;;;;;5.79;100.00;99647.72;4934323;29;20539;-72
2022/12/22 14:34:33;;;;;;;14.85;4.95;;;;;;;5.84;100.00;99661.31;4942600;29;20107;-72
2022/12/22 14:37:00;;;;;;;21.90;6.38;;;;;;;5.88;100.00;99667.94;4933807;29;20046;-72
2022/12/22 14:39:32;;;;;;;23.90;4.97;;;;;;;5.83;100.00;99658.81;4942588;29;20118;-72
2022/12/22 14:42:00;;;;;;;12.25;4.70;;;;;;;5.81;100.00;99663.47;4934810;29;20118;-72
2022/12/22 14:44:28;;;;;;;11.25;5.07;;;;;;;5.76;100.00;99676.31;4942114;29;20126;-72
2022/12/22 14:47:16;;;;;;;15.35;6.00;;;;;;;5.71;100.00;99687.38;4934437;29;20130;-72
2022/12/22 14:49:51;;;;;;;12.98;4.93;;;;;;;5.68;100.00;99700.94;5014539;28;20832;-75
2022/12/22 14:52:41;;;;;;;16.42;6.35;;;;;;;5.70;100.00;99717.50;5014778;28;20068;-74
2022/12/22 14:55:21;;;;;;;21.15;6.53;;;;;;;5.64;100.00;99724.28;5014094;28;20356;-75
2022/12/22 14:57:52;;;;;;;16.23;6.03;;;;;;;5.68;100.00;99730.06;5010509;28;20048;-73
2022/12/22 15:00:23;;;;;;;19.95;6.82;;;;;;;5.66;100.00;99727.56;5017365;28;20098;-76
2022/12/22 15:02:52;;;;;;;18.27;5.78;;;;;;;5.62;100.00;99735.97;5018751;28;20751;-71
2022/12/22 15:05:34;;;;;;;14.95;5.50;;;;;;;5.66;100.00;99726.75;5021494;28;20403;-73
2022/12/22 15:08:00;;;;;;;19.95;4.97;;;;;;;5.59;100.00;99728.34;5005770;28;20053;-71
2022/12/22 15:10:32;;;;;;;20.25;5.07;;;;;;;5.58;100.00;99724.88;5014466;28;20045;-71
2022/12/22 15:13:02;;;;;;;17.92;5.78;;;;;;;5.54;100.00;99728.00;5019023;28;20120;-71
2022/12/22 15:15:30;;;;;;;16.25;5.13;;;;;;;5.42;100.00;99719.47;5014343;28;20402;-72